Time;durP1;ratioP1;P1;durP2;ratioP2;P2;SDS_P1;SDS_P2;PMS_P1;PMS_P2;Temp;Humidity;BMP_temperature;BMP_pressure;BME280_temperature;BME280_humidity;BME280_pressure;Samples;Min_cycle;Max_cycle;Signal;HPM_P1;HPM_P2
2022/10/06 00:04:56;;;;;;;6.20;1.30;;;;;13.30;101802.00;;;;13013464;22;20199;-74
2022/10/06 00:09:57;;;;;;;8.63;1.47;;;;;13.20;101811.00;;;;13042737;22;20187;-74
2022/10/06 00:14:58;;;;;;;7.80;1.73;;;;;13.10;101821.00;;;;13040689;22;20178;-74
2022/10/06 00:19:59;;;;;;;9.73;1.50;;;;;13.10;101834.00;;;;13015810;22;20240;-74
2022/10/06 00:25:01;;;;;;;7.97;1.97;;;;;13.00;101847.00;;;;13036116;22;20183;-74
2022/10/06 00:30:03;;;;;;;10.83;1.63;;;;;13.00;101857.00;;;;13115636;22;20159;-74
2022/10/06 00:35:06;;;;;;;5.53;1.40;;;;;12.90;101863.00;;;;13060383;22;20163;-74
2022/10/06 00:40:09;;;;;;;9.67;1.83;;;;;12.80;101879.00;;;;13086979;22;20159;-74
2022/10/06 00:45:10;;;;;;;6.87;1.30;;;;;12.70;101882.00;;;;13035641;22;20441;-74
2022/10/06 00:50:13;;;;;;;11.57;1.73;;;;;12.60;101899.00;;;;13087980;22;20163;-74
2022/10/06 00:55:14;;;;;;;8.77;1.83;;;;;12.50;101899.00;;;;13062535;22;20163;-74
2022/10/06 01:00:16;;;;;;;8.07;2.00;;;;;12.50;101902.00;;;;13086774;22;20249;-74
2022/10/06 01:05:29;;;;;;;10.97;2.00;;;;;12.50;101909.00;;;;13061658;22;20526;-74
2022/10/06 01:10:30;;;;;;;8.57;1.87;;;;;12.40;101921.00;;;;13014520;22;20187;-73
2022/10/06 01:15:32;;;;;;;14.23;2.47;;;;;12.40;101919.00;;;;13063030;22;20163;-73
2022/10/06 01:20:35;;;;;;;11.40;2.07;;;;;12.40;101928.00;;;;13035610;22;20234;-73
2022/10/06 01:25:37;;;;;;;11.27;2.90;;;;;12.30;101941.00;;;;13013674;22;20219;-73
2022/10/06 01:30:51;;;;;;;13.13;2.00;;;;;12.30;101948.00;;;;13012625;22;20242;-74
2022/10/06 01:35:54;;;;;;;8.17;1.83;;;;;12.20;101950.00;;;;13037568;22;20719;-73
2022/10/06 01:40:57;;;;;;;8.47;1.70;;;;;12.10;101953.00;;;;13013975;22;20168;-73
2022/10/06 01:45:58;;;;;;;9.93;1.87;;;;;12.00;101963.00;;;;13012447;22;20217;-73
2022/10/06 01:51:00;;;;;;;11.77;2.00;;;;;11.90;101955.00;;;;13065004;22;20179;-73
2022/10/06 01:56:01;;;;;;;9.00;2.30;;;;;11.80;101960.00;;;;13013871;22;20262;-73
2022/10/06 02:01:08;;;;;;;12.43;2.30;;;;;11.80;101970.00;;;;13033798;22;20159;-73
2022/10/06 02:06:10;;;;;;;15.53;3.13;;;;;11.70;101964.00;;;;13015287;22;20694;-73
2022/10/06 02:11:12;;;;;;;12.50;2.17;;;;;11.70;101977.00;;;;13015489;22;20241;-73
2022/10/06 02:16:17;;;;;;;14.43;2.97;;;;;11.70;101983.00;;;;13017565;22;20191;-73
2022/10/06 02:21:20;;;;;;;10.63;1.77;;;;;11.60;101984.00;;;;13063083;22;20250;-73
2022/10/06 02:26:22;;;;;;;14.77;2.40;;;;;11.60;101999.00;;;;13014445;22;20779;-73
2022/10/06 02:31:25;;;;;;;11.83;3.20;;;;;11.50;102002.00;;;;12991544;22;20172;-73
2022/10/06 02:36:26;;;;;;;13.90;2.90;;;;;11.40;102016.00;;;;13016869;22;20793;-73
2022/10/06 02:41:28;;;;;;;16.13;2.77;;;;;11.30;102016.00;;;;13063412;22;20163;-73
2022/10/06 02:46:30;;;;;;;16.43;2.53;;;;;11.20;102024.00;;;;12990114;22;20658;-73
2022/10/06 02:51:33;;;;;;;10.23;2.17;;;;;11.10;102015.00;;;;13040905;22;20207;-73
2022/10/06 02:56:36;;;;;;;9.97;2.83;;;;;11.00;102018.00;;;;13014986;22;20787;-73
2022/10/06 03:01:37;;;;;;;14.60;1.80;;;;;11.00;102027.00;;;;13040936;22;20171;-73
2022/10/06 03:06:48;;;;;;;14.40;2.03;;;;;11.00;102044.00;;;;13042325;22;20712;-73
2022/10/06 03:11:52;;;;;;;10.13;1.93;;;;;10.90;102049.00;;;;13016223;22;20754;-73
2022/10/06 03:17:16;;;;;;;13.20;2.47;;;;;10.80;102059.00;;;;13040151;22;20168;-73
2022/10/06 03:22:23;;;;;;;16.03;1.80;;;;;10.70;102061.00;;;;13063352;22;20176;-75
2022/10/06 03:27:28;;;;;;;9.53;2.23;;;;;10.70;102071.00;;;;13063842;22;20163;-75
2022/10/06 03:32:34;;;;;;;13.87;2.43;;;;;10.70;102071.00;;;;12992329;22;20225;-75
2022/10/06 03:37:36;;;;;;;10.10;2.20;;;;;10.60;102080.00;;;;13040999;22;20559;-75
2022/10/06 03:42:37;;;;;;;18.50;2.93;;;;;10.60;102081.00;;;;13041261;22;20199;-75
2022/10/06 03:47:39;;;;;;;12.50;2.47;;;;;10.60;102086.00;;;;13064780;22;20167;-75
2022/10/06 03:52:41;;;;;;;12.20;2.60;;;;;10.60;102089.00;;;;13088593;22;20194;-75
2022/10/06 03:57:44;;;;;;;10.80;2.13;;;;;10.60;102110.00;;;;13062392;22;20814;-75
2022/10/06 04:02:45;;;;;;;11.67;2.23;;;;;10.60;102113.00;;;;13088090;22;20812;-75
2022/10/06 04:07:47;;;;;;;13.77;2.27;;;;;10.50;102125.00;;;;13087913;22;20166;-75
2022/10/06 04:12:48;;;;;;;15.03;2.23;;;;;10.50;102142.00;;;;13015299;22;20199;-75
2022/10/06 04:17:50;;;;;;;13.53;2.50;;;;;10.40;102139.00;;;;13041941;22;20168;-75
2022/10/06 04:22:51;;;;;;;11.53;2.30;;;;;10.40;102140.00;;;;13016020;22;20230;-75
2022/10/06 04:27:52;;;;;;;14.23;2.50;;;;;10.30;102135.00;;;;13086504;22;20420;-75
2022/10/06 04:32:54;;;;;;;15.13;2.67;;;;;10.20;102154.00;;;;13061193;22;20168;-75
2022/10/06 04:37:56;;;;;;;11.90;2.20;;;;;10.20;102159.00;;;;13035332;22;20672;-75
2022/10/06 04:42:58;;;;;;;14.80;2.20;;;;;10.20;102170.00;;;;13052786;22;20570;-75
2022/10/06 04:48:00;;;;;;;13.97;2.47;;;;;10.20;102176.00;;;;13034220;22;20175;-76
2022/10/06 04:53:01;;;;;;;13.67;2.53;;;;;10.10;102185.00;;;;12987881;22;20980;-76
2022/10/06 04:58:02;;;;;;;11.17;2.73;;;;;10.10;102191.00;;;;13032694;22;20156;-76
2022/10/06 05:03:04;;;;;;;11.67;2.70;;;;;10.10;102198.00;;;;13060832;22;20244;-75
2022/10/06 05:08:05;;;;;;;16.73;3.13;;;;;10.10;102202.00;;;;13084570;22;20622;-75
2022/10/06 05:13:10;;;;;;;16.43;2.43;;;;;10.10;102212.00;;;;13033002;22;20195;-75
2022/10/06 05:18:12;;;;;;;17.70;3.60;;;;;10.10;102213.00;;;;13062025;22;20160;-75
2022/10/06 05:23:13;;;;;;;14.03;3.03;;;;;10.10;102218.00;;;;13053218;22;20309;-74
2022/10/06 05:28:15;;;;;;;13.63;2.73;;;;;10.00;102222.00;;;;13054038;22;20159;-73
2022/10/06 05:33:16;;;;;;;14.60;3.10;;;;;10.00;102237.00;;;;13035962;22;20181;-74
2022/10/06 05:38:18;;;;;;;13.67;2.53;;;;;10.00;102233.00;;;;13004220;22;20175;-74
2022/10/06 05:43:19;;;;;;;15.77;3.53;;;;;9.90;102242.00;;;;13084020;22;21023;-74
2022/10/06 05:48:21;;;;;;;16.87;2.87;;;;;9.90;102237.00;;;;13083838;22;20170;-74
2022/10/06 05:53:22;;;;;;;21.07;3.10;;;;;9.90;102251.00;;;;13035932;22;20172;-74
2022/10/06 05:58:23;;;;;;;10.47;2.80;;;;;9.80;102257.00;;;;13010979;22;20175;-74
2022/10/06 06:03:25;;;;;;;17.90;3.40;;;;;9.80;102268.00;;;;13013047;22;20191;-74
2022/10/06 06:08:27;;;;;;;13.53;2.83;;;;;9.80;102270.00;;;;13035524;22;20717;-74
2022/10/06 06:13:29;;;;;;;22.87;3.17;;;;;9.80;102285.00;;;;13038811;22;20184;-74
2022/10/06 06:18:38;;;;;;;15.30;3.73;;;;;9.90;102299.00;;;;13084438;22;20246;-74
2022/10/06 06:23:45;;;;;;;21.73;4.07;;;;;10.00;102300.00;;;;13014558;22;20861;-73
2022/10/06 06:28:49;;;;;;;13.40;3.07;;;;;10.20;102299.00;;;;13038788;22;20265;-73
2022/10/06 06:33:53;;;;;;;16.60;3.10;;;;;10.40;102306.00;;;;13038521;22;20168;-73
2022/10/06 06:38:57;;;;;;;13.03;2.67;;;;;10.50;102301.00;;;;13059728;22;20222;-73
2022/10/06 06:43:59;;;;;;;17.00;3.37;;;;;10.60;102310.00;;;;13013289;22;20187;-73
2022/10/06 06:49:10;;;;;;;17.73;2.80;;;;;10.80;102321.00;;;;13061578;22;20171;-73
2022/10/06 06:54:17;;;;;;;16.17;2.50;;;;;11.00;102331.00;;;;13039352;22;20902;-73
2022/10/06 06:59:21;;;;;;;18.53;3.73;;;;;11.20;102341.00;;;;13016026;22;20168;-73
2022/10/06 07:04:26;;;;;;;14.70;2.60;;;;;11.50;102336.00;;;;13037954;22;20222;-73
2022/10/06 07:09:28;;;;;;;17.73;3.07;;;;;11.80;102343.00;;;;13039009;22;20194;-74
2022/10/06 07:25:05;;;;;;;13.30;2.40;;;;;12.00;102354.00;;;;13088313;22;20655;-74
2022/10/06 07:25:25;;;;;;;12.93;2.57;;;;;12.40;102369.00;;;;13115419;22;20187;-74
2022/10/06 07:30:33;;;;;;;11.33;2.40;;;;;12.60;102387.00;;;;13063481;22;20159;-74
2022/10/06 07:35:45;;;;;;;7.90;2.33;;;;;12.70;102400.00;;;;13062220;22;20167;-74
2022/10/06 07:40:55;;;;;;;12.27;3.10;;;;;12.90;102414.00;;;;13040358;22;20172;-74
2022/10/06 07:46:18;;;;;;;13.13;3.00;;;;;13.10;102418.00;;;;13041137;22;20187;-74
2022/10/06 07:51:28;;;;;;;19.03;3.00;;;;;13.30;102430.00;;;;13088492;22;20174;-74
2022/10/06 07:56:31;;;;;;;17.37;2.80;;;;;13.60;102435.00;;;;13062438;22;20668;-74
2022/10/06 08:01:33;;;;;;;14.10;2.47;;;;;13.80;102445.00;;;;13061899;22;20182;-74
2022/10/06 08:06:35;;;;;;;8.97;2.40;;;;;14.00;102451.00;;;;13087460;22;20190;-74
2022/10/06 08:11:36;;;;;;;22.33;3.50;;;;;14.20;102452.00;;;;13061020;22;20183;-74
2022/10/06 08:16:37;;;;;;;13.93;2.70;;;;;14.60;102457.00;;;;13088839;22;20175;-74
2022/10/06 08:21:38;;;;;;;12.70;3.33;;;;;15.00;102474.00;;;;13012641;22;20171;-74
2022/10/06 08:26:39;;;;;;;14.40;2.80;;;;;15.40;102468.00;;;;13040229;22;20191;-74
2022/10/06 08:31:41;;;;;;;11.98;2.50;;;;;15.80;102479.00;;;;13116042;22;20171;-74
2022/10/06 08:36:42;;;;;;;11.15;2.67;;;;;16.10;102484.00;;;;13039870;22;20257;-74
2022/10/06 08:42:04;;;;;;;10.80;2.53;;;;;16.40;102494.00;;;;13092688;22;20160;-75
2022/10/06 08:47:16;;;;;;;11.02;2.55;;;;;16.50;102500.00;;;;13035642;22;20198;-75
2022/10/06 08:52:49;;;;;;;11.50;2.63;;;;;16.80;102497.00;;;;13115367;22;20182;-75
2022/10/06 08:58:17;;;;;;;10.90;2.20;;;;;17.10;102501.00;;;;13064456;22;20656;-74
2022/10/06 09:03:25;;;;;;;7.47;2.15;;;;;17.60;102511.00;;;;13066405;22;20192;-74
2022/10/06 09:08:46;;;;;;;8.88;2.42;;;;;17.90;102520.00;;;;13014089;22;20198;-74
2022/10/06 09:14:12;;;;;;;12.90;2.50;;;;;18.10;102526.00;;;;13086969;22;20170;-74
2022/10/06 09:19:32;;;;;;;10.15;2.80;;;;;18.30;102524.00;;;;13088228;22;20228;-74
2022/10/06 09:24:44;;;;;;;10.95;2.13;;;;;18.60;102532.00;;;;13086153;22;20268;-75
2022/10/06 09:29:49;;;;;;;7.20;2.00;;;;;18.80;102537.00;;;;13039076;22;20305;-75
2022/10/06 09:34:58;;;;;;;11.07;2.20;;;;;18.90;102544.00;;;;13086419;22;20288;-75
2022/10/06 09:39:59;;;;;;;11.13;2.40;;;;;18.80;102549.00;;;;13039336;22;20170;-75
2022/10/06 09:45:06;;;;;;;5.03;1.65;;;;;18.70;102551.00;;;;13065618;22;20289;-75
2022/10/06 09:50:21;;;;;;;8.85;1.70;;;;;18.60;102552.00;;;;13038119;22;20164;-75
2022/10/06 09:55:28;;;;;;;4.53;1.77;;;;;18.50;102545.00;;;;13039658;22;20266;-74
2022/10/06 10:00:42;;;;;;;7.25;1.65;;;;;18.70;102550.00;;;;13058917;22;20173;-74
2022/10/06 10:05:49;;;;;;;4.60;1.60;;;;;18.90;102556.00;;;;13064550;22;20203;-74
2022/10/06 10:11:06;;;;;;;8.15;1.40;;;;;19.30;102554.00;;;;13085405;22;20254;-75
2022/10/06 10:16:18;;;;;;;3.92;1.50;;;;;19.60;102555.00;;;;13113862;22;20650;-75
2022/10/06 10:21:25;;;;;;;4.72;1.45;;;;;19.90;102551.00;;;;13065026;22;20171;-75
2022/10/06 10:26:47;;;;;;;7.47;1.88;;;;;20.10;102560.00;;;;13039545;22;20199;-75
2022/10/06 10:31:57;;;;;;;5.95;1.73;;;;;20.40;102560.00;;;;13041191;22;20757;-75
2022/10/06 10:37:08;;;;;;;3.88;1.42;;;;;20.70;102556.00;;;;13088118;22;20277;-75
2022/10/06 10:42:37;;;;;;;7.45;1.52;;;;;21.00;102561.00;;;;13041370;22;20194;-75
2022/10/06 10:47:42;;;;;;;7.72;1.60;;;;;21.20;102555.00;;;;13078792;22;20199;-75
2022/10/06 10:52:47;;;;;;;4.65;1.50;;;;;21.40;102554.00;;;;13088816;22;20190;-75
2022/10/06 10:57:49;;;;;;;5.90;1.40;;;;;21.60;102559.00;;;;13014623;22;20179;-75
2022/10/06 11:02:54;;;;;;;5.15;1.58;;;;;21.70;102555.00;;;;13063951;22;20179;-75
2022/10/06 11:08:21;;;;;;;7.65;1.58;;;;;21.70;102553.00;;;;13013979;22;20172;-75
2022/10/06 11:13:42;;;;;;;5.20;1.17;;;;;21.80;102550.00;;;;13087993;22;20191;-75
2022/10/06 11:18:49;;;;;;;6.90;1.20;;;;;21.90;102556.00;;;;12990946;22;20167;-75
2022/10/06 11:23:56;;;;;;;8.05;1.77;;;;;21.80;102549.00;;;;13087889;22;20695;-75
2022/10/06 11:29:04;;;;;;;3.88;1.08;;;;;21.50;102550.00;;;;13065936;22;20179;-74
2022/10/06 11:34:08;;;;;;;9.60;1.55;;;;;21.20;102542.00;;;;13062985;22;20175;-75
2022/10/06 11:39:21;;;;;;;3.58;1.13;;;;;21.40;102531.00;;;;13040284;22;20170;-75
2022/10/06 11:44:38;;;;;;;3.63;1.05;;;;;21.10;102533.00;;;;13085262;22;20193;-75
2022/10/06 11:49:54;;;;;;;3.10;1.00;;;;;21.00;102533.00;;;;13039797;22;20284;-75
2022/10/06 11:55:07;;;;;;;3.55;1.13;;;;;20.90;102523.00;;;;13014235;22;20258;-75
2022/10/06 12:00:15;;;;;;;5.65;1.30;;;;;21.50;102521.00;;;;13011012;22;20164;-75
2022/10/06 12:05:19;;;;;;;6.72;1.60;;;;;21.50;102519.00;;;;13085863;22;20191;-75
2022/10/06 12:10:48;;;;;;;6.60;1.10;;;;;21.70;102519.00;;;;13037628;22;20219;-75
2022/10/06 12:16:08;;;;;;;6.65;1.33;;;;;21.70;102518.00;;;;13062103;22;20163;-75
2022/10/06 12:21:43;;;;;;;3.78;1.40;;;;;21.80;102517.00;;;;13045681;22;20244;-75
2022/10/06 12:27:02;;;;;;;4.53;1.20;;;;;21.70;102502.00;;;;13114759;22;20202;-75
2022/10/06 12:32:11;;;;;;;3.72;1.38;;;;;21.50;102507.00;;;;13061433;22;20163;-75
2022/10/06 12:37:28;;;;;;;4.95;1.42;;;;;21.50;102497.00;;;;13066230;22;20179;-75
2022/10/06 12:42:30;;;;;;;5.80;1.30;;;;;21.80;102491.00;;;;13038719;22;20191;-75
2022/10/06 12:47:37;;;;;;;6.50;1.27;;;;;22.00;102505.00;;;;13060804;22;20159;-75
2022/10/06 12:52:50;;;;;;;3.00;0.88;;;;;21.90;102490.00;;;;13065121;22;20309;-75
2022/10/06 12:57:52;;;;;;;3.63;1.05;;;;;21.80;102480.00;;;;13064727;22;20167;-75
2022/10/06 13:02:56;;;;;;;6.40;1.08;;;;;21.50;102484.00;;;;13039454;22;20191;-75
2022/10/06 13:08:00;;;;;;;4.25;0.95;;;;;21.40;102484.00;;;;13038464;22;20171;-75
2022/10/06 13:13:01;;;;;;;2.35;1.10;;;;;20.90;102473.00;;;;13065089;22;20700;-75
2022/10/06 13:18:14;;;;;;;4.75;1.20;;;;;20.50;102474.00;;;;13065073;22;20167;-75
2022/10/06 13:23:27;;;;;;;8.77;1.63;;;;;20.40;102474.00;;;;13114139;22;20316;-75
2022/10/06 13:28:43;;;;;;;6.45;1.92;;;;;20.20;102476.00;;;;13039559;22;20174;-74
2022/10/06 13:33:48;;;;;;;6.93;1.33;;;;;19.80;102472.00;;;;13089223;22;20175;-74
2022/10/06 13:38:49;;;;;;;3.55;1.40;;;;;19.80;102466.00;;;;13039543;22;20172;-74
2022/10/06 13:43:55;;;;;;;9.30;1.55;;;;;22.20;102465.00;;;;13063647;22;20206;-74
2022/10/06 13:49:08;;;;;;;9.32;1.40;;;;;23.20;102461.00;;;;13085197;22;20167;-74
2022/10/06 13:54:24;;;;;;;7.28;2.00;;;;;23.70;102456.00;;;;13060215;22;20175;-76
2022/10/06 13:59:37;;;;;;;7.03;1.65;;;;;22.40;102462.00;;;;13058484;22;20487;-75
2022/10/06 14:04:38;;;;;;;8.93;2.08;;;;;20.30;102462.00;;;;13012901;22;20195;-75
2022/10/06 14:09:41;;;;;;;8.52;1.65;;;;;19.90;102448.00;;;;13086852;22;20203;-75
2022/10/06 14:14:48;;;;;;;5.15;1.10;;;;;19.50;102453.00;;;;13039773;22;20259;-75
2022/10/06 14:19:49;;;;;;;6.25;1.52;;;;;18.90;102452.00;;;;13064471;22;20167;-74
2022/10/06 14:24:51;;;;;;;6.70;1.55;;;;;19.70;102446.00;;;;13036640;22;20290;-75
2022/10/06 14:29:54;;;;;;;9.15;1.63;;;;;18.90;102453.00;;;;13039506;22;20178;-74
2022/10/06 14:34:55;;;;;;;7.10;1.67;;;;;18.20;102460.00;;;;13038331;22;20716;-76
2022/10/06 14:39:56;;;;;;;7.10;1.85;;;;;18.00;102444.00;;;;13012045;22;20175;-75
2022/10/06 14:44:58;;;;;;;8.68;2.00;;;;;17.90;102453.00;;;;13037982;22;20406;-75
2022/10/06 14:50:00;;;;;;;7.72;1.90;;;;;18.00;102453.00;;;;13058668;22;20305;-75
2022/10/06 14:55:01;;;;;;;7.20;1.60;;;;;18.00;102442.00;;;;13057553;22;20179;-75
2022/10/06 15:00:04;;;;;;;9.68;1.90;;;;;17.90;102437.00;;;;13036213;22;20690;-75
2022/10/06 15:05:06;;;;;;;8.48;1.75;;;;;17.50;102443.00;;;;13035807;22;20229;-75
2022/10/06 15:10:07;;;;;;;9.05;1.80;;;;;17.40;102435.00;;;;13061103;22;20187;-75
2022/10/06 15:15:09;;;;;;;7.95;1.98;;;;;17.40;102445.00;;;;13086310;22;20175;-75
2022/10/06 15:20:13;;;;;;;4.50;1.42;;;;;17.60;102445.00;;;;13038081;22;20163;-75
2022/10/06 15:30:38;;;;;;;5.22;1.52;;;;;17.50;102434.00;;;;13061255;22;20170;-75
2022/10/06 15:35:42;;;;;;;9.00;1.65;;;;;17.40;102427.00;;;;13039557;22;20592;-75
2022/10/06 15:40:44;;;;;;;6.93;1.48;;;;;17.10;102431.00;;;;13036828;22;20229;-75
2022/10/06 15:45:52;;;;;;;7.63;1.60;;;;;16.80;102421.00;;;;13037800;22;20199;-75
2022/10/06 15:50:53;;;;;;;8.85;1.67;;;;;16.50;102419.00;;;;13087158;22;20167;-74
2022/10/06 15:55:57;;;;;;;7.65;1.70;;;;;16.50;102418.00;;;;13039945;22;20232;-75
2022/10/06 16:00:58;;;;;;;8.07;1.77;;;;;16.40;102424.00;;;;13038834;22;20653;-75
2022/10/06 16:06:03;;;;;;;5.53;1.88;;;;;16.30;102417.00;;;;13027042;22;20202;-75
2022/10/06 16:11:05;;;;;;;4.13;1.40;;;;;16.10;102415.00;;;;13072504;22;20794;-75
2022/10/06 16:16:06;;;;;;;8.57;2.05;;;;;15.90;102409.00;;;;13113488;22;20767;-75
2022/10/06 16:21:07;;;;;;;6.57;2.05;;;;;15.80;102413.00;;;;13015416;22;20173;-75
2022/10/06 16:26:08;;;;;;;9.88;1.58;;;;;15.60;102407.00;;;;13085479;22;20199;-75
2022/10/06 16:31:10;;;;;;;11.40;1.55;;;;;15.50;102407.00;;;;13015225;22;20205;-75
2022/10/06 16:36:13;;;;;;;6.72;2.08;;;;;15.30;102413.00;;;;12989510;22;20175;-75
2022/10/06 16:41:14;;;;;;;9.10;2.25;;;;;15.20;102397.00;;;;13084312;22;20436;-74
2022/10/06 16:46:24;;;;;;;9.53;2.00;;;;;15.00;102398.00;;;;13064240;22;20203;-75
2022/10/06 16:51:26;;;;;;;7.30;1.80;;;;;14.80;102401.00;;;;13086441;22;20166;-74
2022/10/06 16:56:31;;;;;;;7.93;2.17;;;;;14.50;102403.00;;;;13037426;22;20171;-75
2022/10/06 17:01:35;;;;;;;6.33;2.27;;;;;14.30;102401.00;;;;13060657;22;20786;-75
2022/10/06 17:06:39;;;;;;;13.30;2.17;;;;;14.10;102402.00;;;;13032794;22;20516;-75
2022/10/06 17:11:43;;;;;;;8.83;2.50;;;;;13.90;102403.00;;;;13058025;22;20638;-75
2022/10/06 17:16:46;;;;;;;11.13;2.37;;;;;13.70;102411.00;;;;13038731;22;20271;-74
2022/10/06 17:21:47;;;;;;;9.97;2.83;;;;;13.50;102413.00;;;;13058131;22;20595;-74
2022/10/06 17:26:56;;;;;;;10.37;3.10;;;;;13.40;102410.00;;;;13008665;22;20228;-74
2022/10/06 17:31:57;;;;;;;11.40;2.77;;;;;13.20;102411.00;;;;13012324;22;20205;-74
2022/10/06 17:37:00;;;;;;;13.17;3.30;;;;;13.20;102412.00;;;;13011119;22;20507;-75
2022/10/06 17:42:02;;;;;;;15.97;5.43;;;;;13.20;102416.00;;;;13089769;22;20178;-74
2022/10/06 17:47:03;;;;;;;11.07;4.53;;;;;13.10;102414.00;;;;13011979;22;20349;-74
2022/10/06 17:52:04;;;;;;;9.90;2.77;;;;;13.00;102411.00;;;;13083808;22;20630;-74
2022/10/06 17:57:05;;;;;;;11.00;3.20;;;;;12.80;102413.00;;;;13077853;22;20170;-74
2022/10/06 18:02:11;;;;;;;8.80;2.53;;;;;12.80;102418.00;;;;13107369;22;20163;-74
2022/10/06 18:07:12;;;;;;;16.73;2.47;;;;;12.70;102412.00;;;;13033428;22;20564;-74
2022/10/06 18:12:13;;;;;;;7.50;2.43;;;;;12.60;102422.00;;;;13033271;22;20191;-74
2022/10/06 18:17:15;;;;;;;7.97;2.17;;;;;12.60;102405.00;;;;13057013;22;20602;-74
2022/10/06 18:22:16;;;;;;;10.17;2.77;;;;;12.40;102408.00;;;;13058087;22;20618;-74
2022/10/06 18:27:17;;;;;;;10.03;2.53;;;;;12.30;102407.00;;;;13037023;22;20717;-74
2022/10/06 18:32:18;;;;;;;11.57;2.80;;;;;12.10;102415.00;;;;13034717;22;20201;-74
2022/10/06 18:37:39;;;;;;;9.70;2.40;;;;;11.90;102408.00;;;;13033312;22;20240;-74
2022/10/06 18:42:41;;;;;;;11.83;3.20;;;;;11.80;102405.00;;;;13053491;22;20164;-74
2022/10/06 18:53:17;;;;;;;7.03;2.33;;;;;11.50;102398.00;;;;13032737;22;20181;-74
2022/10/06 18:58:18;;;;;;;12.93;2.80;;;;;11.40;102395.00;;;;13083717;22;20175;-74
2022/10/06 19:03:19;;;;;;;10.67;3.30;;;;;11.40;102404.00;;;;13111084;22;20184;-74
2022/10/06 19:08:21;;;;;;;13.73;2.70;;;;;11.30;102403.00;;;;13058143;22;20168;-74
2022/10/06 19:13:23;;;;;;;13.47;2.80;;;;;11.20;102396.00;;;;13057192;22;20194;-74
2022/10/06 19:18:31;;;;;;;8.57;2.03;;;;;11.20;102399.00;;;;13083972;22;20168;-74
2022/10/06 19:23:34;;;;;;;10.50;2.47;;;;;11.10;102395.00;;;;13011617;22;20188;-74
2022/10/06 19:28:36;;;;;;;12.47;2.70;;;;;11.10;102396.00;;;;13037063;22;20199;-74
2022/10/06 19:33:38;;;;;;;10.53;2.83;;;;;11.20;102410.00;;;;13082728;22;20160;-74
2022/10/06 19:38:39;;;;;;;9.63;2.40;;;;;11.30;102412.00;;;;13037168;22;20187;-74
2022/10/06 19:43:40;;;;;;;8.33;2.30;;;;;11.20;102404.00;;;;13010121;22;20231;-74
2022/10/06 19:48:42;;;;;;;8.70;3.63;;;;;11.20;102411.00;;;;13031837;22;20159;-74
2022/10/06 19:53:50;;;;;;;16.13;3.93;;;;;11.10;102405.00;;;;13084128;22;20242;-73
2022/10/06 19:58:51;;;;;;;10.30;3.83;;;;;11.10;102410.00;;;;13033223;22;20764;-74
2022/10/06 20:03:53;;;;;;;11.23;3.37;;;;;11.00;102410.00;;;;13055713;22;20184;-74
2022/10/06 20:08:56;;;;;;;9.67;3.17;;;;;10.90;102409.00;;;;13011784;22;20338;-74
2022/10/06 20:13:57;;;;;;;13.43;3.60;;;;;10.80;102417.00;;;;13055767;22;20171;-74
2022/10/06 20:18:58;;;;;;;10.03;3.03;;;;;10.90;102402.00;;;;13009659;22;20260;-74
2022/10/06 20:24:04;;;;;;;12.70;3.23;;;;;10.90;102412.00;;;;13081905;22;20455;-74
2022/10/06 20:29:08;;;;;;;13.50;4.07;;;;;10.80;102421.00;;;;13060449;22;20194;-74
2022/10/06 20:34:12;;;;;;;9.23;3.30;;;;;10.80;102416.00;;;;13111590;22;20175;-74
2022/10/06 20:44:37;;;;;;;15.57;2.80;;;;;10.70;102412.00;;;;13056975;22;20187;-74
2022/10/06 20:49:38;;;;;;;11.73;3.53;;;;;10.70;102418.00;;;;13061102;22;20232;-74
2022/10/06 20:54:40;;;;;;;16.63;3.83;;;;;10.80;102407.00;;;;13056806;22;20871;-74
2022/10/06 20:59:41;;;;;;;22.27;5.23;;;;;10.90;102402.00;;;;13083297;22;20168;-74
2022/10/06 21:04:43;;;;;;;17.60;4.00;;;;;10.90;102394.00;;;;13010009;22;20278;-74
2022/10/06 21:09:45;;;;;;;16.73;3.83;;;;;10.90;102401.00;;;;13031754;22;20585;-74
2022/10/06 21:14:53;;;;;;;10.27;4.17;;;;;10.80;102393.00;;;;13057229;22;20183;-74
2022/10/06 21:19:54;;;;;;;11.13;4.07;;;;;10.70;102387.00;;;;13082942;22;20163;-74
2022/10/06 21:24:55;;;;;;;14.23;4.90;;;;;10.70;102378.00;;;;13035564;22;20195;-74
2022/10/06 21:29:56;;;;;;;12.60;3.50;;;;;10.70;102388.00;;;;13059441;22;20687;-74
2022/10/06 21:34:58;;;;;;;12.03;3.50;;;;;10.70;102382.00;;;;13060334;22;20167;-74
2022/10/06 21:39:59;;;;;;;21.00;3.80;;;;;10.60;102362.00;;;;13038501;22;20510;-73
2022/10/06 21:45:04;;;;;;;9.00;2.73;;;;;10.60;102359.00;;;;13087646;22;20179;-74
2022/10/06 21:50:05;;;;;;;11.47;3.43;;;;;10.60;102363.00;;;;13039383;22;20603;-74
2022/10/06 21:55:07;;;;;;;15.07;3.20;;;;;10.50;102357.00;;;;13037611;22;20175;-74
2022/10/06 22:00:09;;;;;;;11.87;3.43;;;;;10.40;102366.00;;;;13014088;22;20165;-74
2022/10/06 22:05:13;;;;;;;15.10;3.50;;;;;10.40;102365.00;;;;13059573;22;20189;-74
2022/10/06 22:10:15;;;;;;;13.50;3.40;;;;;10.40;102360.00;;;;13059877;22;20640;-74
2022/10/06 22:15:16;;;;;;;8.60;2.80;;;;;10.50;102354.00;;;;13059433;22;20592;-74
2022/10/06 22:20:17;;;;;;;21.00;3.37;;;;;10.50;102353.00;;;;12988686;22;20639;-74
2022/10/06 22:25:19;;;;;;;11.47;3.30;;;;;10.40;102352.00;;;;13039771;22;20214;-74
2022/10/06 22:30:20;;;;;;;10.77;2.93;;;;;10.40;102353.00;;;;13041310;22;20174;-74
2022/10/06 22:35:22;;;;;;;10.00;4.00;;;;;10.20;102345.00;;;;13035861;22;20470;-74
2022/10/06 22:40:23;;;;;;;12.80;4.10;;;;;10.20;102335.00;;;;13042499;22;20171;-74
2022/10/06 22:45:24;;;;;;;12.27;3.77;;;;;10.20;102332.00;;;;13063021;22;20192;-74
2022/10/06 22:50:25;;;;;;;16.93;3.90;;;;;10.20;102332.00;;;;13013219;22;20178;-74
2022/10/06 22:55:26;;;;;;;16.53;3.33;;;;;10.10;102323.00;;;;13040540;22;20668;-74
2022/10/06 23:00:28;;;;;;;15.57;3.70;;;;;10.00;102327.00;;;;13014639;22;20168;-74
2022/10/06 23:05:29;;;;;;;13.17;3.73;;;;;10.00;102319.00;;;;13040243;22;20199;-74
2022/10/06 23:10:32;;;;;;;16.67;3.57;;;;;9.90;102312.00;;;;13062518;22;20253;-74
2022/10/06 23:15:33;;;;;;;12.37;3.33;;;;;9.90;102302.00;;;;13087207;22;20155;-74
2022/10/06 23:20:34;;;;;;;18.83;3.67;;;;;9.80;102302.00;;;;13039095;22;20171;-74
2022/10/06 23:25:36;;;;;;;16.23;4.00;;;;;9.80;102281.00;;;;13088239;22;20182;-74
2022/10/06 23:30:38;;;;;;;17.47;3.40;;;;;9.80;102284.00;;;;13087579;22;20193;-74
2022/10/06 23:35:39;;;;;;;17.97;4.13;;;;;9.80;102285.00;;;;13114238;22;20167;-74
2022/10/06 23:40:40;;;;;;;15.07;3.63;;;;;9.80;102275.00;;;;13087835;22;20247;-74
2022/10/06 23:45:41;;;;;;;12.50;3.07;;;;;9.70;102272.00;;;;12988963;22;20203;-74
2022/10/06 23:50:54;;;;;;;18.33;3.37;;;;;9.60;102264.00;;;;13086831;22;20167;-74
2022/10/06 23:55:56;;;;;;;14.60;3.57;;;;;9.40;102260.00;;;;13040717;22;20167;-74
